sensor_id;sensor_type;location;lat;lon;timestamp;temperature;humidity
4647;DHT22;2336;47.822;7.564;2023-05-07T00:01:33;13.90;99.90
4647;DHT22;2336;47.822;7.564;2023-05-07T00:04:01;13.90;99.90
4647;DHT22;2336;47.822;7.564;2023-05-07T00:06:28;13.90;99.90
4647;DHT22;2336;47.822;7.564;2023-05-07T00:08:56;13.80;99.90
4647;DHT22;2336;47.822;7.564;2023-05-07T00:11:23;13.80;99.90
4647;DHT22;2336;47.822;7.564;2023-05-07T00:13:51;13.80;99.90
4647;DHT22;2336;47.822;7.564;2023-05-07T00:16:17;13.70;99.90
4647;DHT22;2336;47.822;7.564;2023-05-07T00:18:44;13.70;99.90
4647;DHT22;2336;47.822;7.564;2023-05-07T00:21:12;13.70;99.90
4647;DHT22;2336;47.822;7.564;2023-05-07T00:23:39;13.70;99.90
4647;DHT22;2336;47.822;7.564;2023-05-07T00:26:06;13.70;99.90
4647;DHT22;2336;47.822;7.564;2023-05-07T00:28:32;13.70;99.90
4647;DHT22;2336;47.822;7.564;2023-05-07T00:30:59;13.70;99.90
4647;DHT22;2336;47.822;7.564;2023-05-07T00:33:26;13.60;99.90
4647;DHT22;2336;47.822;7.564;2023-05-07T00:35:53;13.50;99.90
4647;DHT22;2336;47.822;7.564;2023-05-07T00:38:21;13.50;99.90
4647;DHT22;2336;47.822;7.564;2023-05-07T00:40:48;13.50;99.90
4647;DHT22;2336;47.822;7.564;2023-05-07T00:43:16;13.40;99.90
4647;DHT22;2336;47.822;7.564;2023-05-07T00:45:42;13.40;99.90
4647;DHT22;2336;47.822;7.564;2023-05-07T00:48:09;13.30;99.90
4647;DHT22;2336;47.822;7.564;2023-05-07T00:50:36;13.30;99.90
4647;DHT22;2336;47.822;7.564;2023-05-07T00:53:03;13.30;99.90
4647;DHT22;2336;47.822;7.564;2023-05-07T00:55:32;13.30;99.90
4647;DHT22;2336;47.822;7.564;2023-05-07T00:57:59;13.30;99.90
4647;DHT22;2336;47.822;7.564;2023-05-07T01:00:26;13.30;99.90
4647;DHT22;2336;47.822;7.564;2023-05-07T01:02:53;13.20;99.90
4647;DHT22;2336;47.822;7.564;2023-05-07T01:05:21;13.20;99.90
4647;DHT22;2336;47.822;7.564;2023-05-07T01:07:50;13.20;99.90
4647;DHT22;2336;47.822;7.564;2023-05-07T01:10:18;13.20;99.90
4647;DHT22;2336;47.822;7.564;2023-05-07T01:12:47;13.20;99.90
4647;DHT22;2336;47.822;7.564;2023-05-07T01:15:15;13.20;99.90
4647;DHT22;2336;47.822;7.564;2023-05-07T01:17:42;13.10;99.90
4647;DHT22;2336;47.822;7.564;2023-05-07T01:20:10;13.10;99.90
4647;DHT22;2336;47.822;7.564;2023-05-07T01:22:39;13.10;99.90
4647;DHT22;2336;47.822;7.564;2023-05-07T01:25:06;13.00;99.90
4647;DHT22;2336;47.822;7.564;2023-05-07T01:27:33;13.00;99.90
4647;DHT22;2336;47.822;7.564;2023-05-07T01:30:00;12.90;99.90
4647;DHT22;2336;47.822;7.564;2023-05-07T01:32:31;12.90;99.90
4647;DHT22;2336;47.822;7.564;2023-05-07T01:34:58;12.90;99.90
4647;DHT22;2336;47.822;7.564;2023-05-07T01:37:26;12.80;99.90
4647;DHT22;2336;47.822;7.564;2023-05-07T01:39:54;12.80;99.90
4647;DHT22;2336;47.822;7.564;2023-05-07T01:42:22;12.90;99.90
4647;DHT22;2336;47.822;7.564;2023-05-07T01:44:49;12.80;99.90
4647;DHT22;2336;47.822;7.564;2023-05-07T01:47:16;12.90;99.90
4647;DHT22;2336;47.822;7.564;2023-05-07T01:49:43;13.00;99.90
4647;DHT22;2336;47.822;7.564;2023-05-07T01:52:10;13.00;99.90
4647;DHT22;2336;47.822;7.564;2023-05-07T01:54:37;13.00;99.90
4647;DHT22;2336;47.822;7.564;2023-05-07T01:57:05;12.90;99.90
4647;DHT22;2336;47.822;7.564;2023-05-07T01:59:31;12.90;99.90
4647;DHT22;2336;47.822;7.564;2023-05-07T02:01:58;12.90;99.90
4647;DHT22;2336;47.822;7.564;2023-05-07T02:04:26;12.80;99.90
4647;DHT22;2336;47.822;7.564;2023-05-07T02:06:52;12.80;99.90
4647;DHT22;2336;47.822;7.564;2023-05-07T02:09:19;12.70;99.90
4647;DHT22;2336;47.822;7.564;2023-05-07T02:11:46;12.60;99.90
4647;DHT22;2336;47.822;7.564;2023-05-07T02:14:14;12.60;99.90
4647;DHT22;2336;47.822;7.564;2023-05-07T02:16:40;12.60;99.90
4647;DHT22;2336;47.822;7.564;2023-05-07T02:19:07;12.60;99.90
4647;DHT22;2336;47.822;7.564;2023-05-07T02:21:34;12.60;99.90
4647;DHT22;2336;47.822;7.564;2023-05-07T02:24:00;12.60;99.90
4647;DHT22;2336;47.822;7.564;2023-05-07T02:26:27;12.50;99.90
4647;DHT22;2336;47.822;7.564;2023-05-07T02:28:54;12.40;99.90
4647;DHT22;2336;47.822;7.564;2023-05-07T02:31:22;12.40;99.90
4647;DHT22;2336;47.822;7.564;2023-05-07T02:33:49;12.40;99.90
4647;DHT22;2336;47.822;7.564;2023-05-07T02:36:15;12.30;99.90
4647;DHT22;2336;47.822;7.564;2023-05-07T02:38:42;12.30;99.90
4647;DHT22;2336;47.822;7.564;2023-05-07T02:41:09;12.30;99.90
4647;DHT22;2336;47.822;7.564;2023-05-07T02:43:36;12.30;99.90
4647;DHT22;2336;47.822;7.564;2023-05-07T02:46:04;12.20;99.90
4647;DHT22;2336;47.822;7.564;2023-05-07T02:48:32;12.20;99.90
4647;DHT22;2336;47.822;7.564;2023-05-07T02:50:59;12.10;99.90
4647;DHT22;2336;47.822;7.564;2023-05-07T02:53:27;12.10;99.90
4647;DHT22;2336;47.822;7.564;2023-05-07T02:55:56;12.10;99.90
4647;DHT22;2336;47.822;7.564;2023-05-07T02:58:23;12.00;99.90
4647;DHT22;2336;47.822;7.564;2023-05-07T03:00:50;12.00;99.90
4647;DHT22;2336;47.822;7.564;2023-05-07T03:03:17;11.90;99.90
4647;DHT22;2336;47.822;7.564;2023-05-07T03:05:45;11.90;99.90
4647;DHT22;2336;47.822;7.564;2023-05-07T03:08:12;11.90;99.90
4647;DHT22;2336;47.822;7.564;2023-05-07T03:10:39;11.90;99.90
4647;DHT22;2336;47.822;7.564;2023-05-07T03:13:05;11.80;99.90
4647;DHT22;2336;47.822;7.564;2023-05-07T03:15:32;11.80;99.90
4647;DHT22;2336;47.822;7.564;2023-05-07T03:17:59;11.80;99.90
4647;DHT22;2336;47.822;7.564;2023-05-07T03:20:25;11.80;99.90
4647;DHT22;2336;47.822;7.564;2023-05-07T03:22:54;11.80;99.90
4647;DHT22;2336;47.822;7.564;2023-05-07T03:25:20;11.80;99.90
4647;DHT22;2336;47.822;7.564;2023-05-07T03:27:47;11.80;99.90
4647;DHT22;2336;47.822;7.564;2023-05-07T03:30:14;11.70;99.90
4647;DHT22;2336;47.822;7.564;2023-05-07T03:32:41;11.70;99.90
4647;DHT22;2336;47.822;7.564;2023-05-07T03:35:07;11.70;99.90
4647;DHT22;2336;47.822;7.564;2023-05-07T03:37:35;11.70;99.90
4647;DHT22;2336;47.822;7.564;2023-05-07T03:40:04;11.60;99.90
4647;DHT22;2336;47.822;7.564;2023-05-07T03:42:31;11.60;99.90
4647;DHT22;2336;47.822;7.564;2023-05-07T03:44:58;11.70;99.90
4647;DHT22;2336;47.822;7.564;2023-05-07T03:47:24;11.70;99.90
4647;DHT22;2336;47.822;7.564;2023-05-07T03:49:51;11.70;99.90
4647;DHT22;2336;47.822;7.564;2023-05-07T03:52:19;11.70;99.90
4647;DHT22;2336;47.822;7.564;2023-05-07T03:54:51;11.70;99.90
4647;DHT22;2336;47.822;7.564;2023-05-07T03:57:19;11.70;99.90
4647;DHT22;2336;47.822;7.564;2023-05-07T03:59:45;11.70;99.90
4647;DHT22;2336;47.822;7.564;2023-05-07T04:02:12;11.70;99.90
4647;DHT22;2336;47.822;7.564;2023-05-07T04:04:39;11.70;99.90
4647;DHT22;2336;47.822;7.564;2023-05-07T04:07:05;11.60;99.90
4647;DHT22;2336;47.822;7.564;2023-05-07T04:09:32;11.60;99.90
4647;DHT22;2336;47.822;7.564;2023-05-07T04:11:59;11.60;99.90
4647;DHT22;2336;47.822;7.564;2023-05-07T04:14:28;11.50;99.90
4647;DHT22;2336;47.822;7.564;2023-05-07T04:16:55;11.50;99.90
4647;DHT22;2336;47.822;7.564;2023-05-07T04:19:22;11.60;99.90
4647;DHT22;2336;47.822;7.564;2023-05-07T04:21:49;11.60;99.90
4647;DHT22;2336;47.822;7.564;2023-05-07T04:24:15;11.50;99.90
4647;DHT22;2336;47.822;7.564;2023-05-07T04:26:42;11.50;99.90
4647;DHT22;2336;47.822;7.564;2023-05-07T04:29:09;11.50;99.90
4647;DHT22;2336;47.822;7.564;2023-05-07T04:31:38;11.60;99.90
4647;DHT22;2336;47.822;7.564;2023-05-07T04:34:05;11.60;99.90
4647;DHT22;2336;47.822;7.564;2023-05-07T04:36:32;11.60;99.90
4647;DHT22;2336;47.822;7.564;2023-05-07T04:38:59;11.60;99.90
4647;DHT22;2336;47.822;7.564;2023-05-07T04:41:26;11.60;99.90
4647;DHT22;2336;47.822;7.564;2023-05-07T04:43:53;11.60;99.90
4647;DHT22;2336;47.822;7.564;2023-05-07T04:46:20;11.70;99.90
4647;DHT22;2336;47.822;7.564;2023-05-07T04:48:48;11.80;99.90
4647;DHT22;2336;47.822;7.564;2023-05-07T04:51:14;11.90;99.90
4647;DHT22;2336;47.822;7.564;2023-05-07T04:53:41;11.90;99.90
4647;DHT22;2336;47.822;7.564;2023-05-07T04:56:08;12.20;99.90
4647;DHT22;2336;47.822;7.564;2023-05-07T04:58:35;12.30;99.90
4647;DHT22;2336;47.822;7.564;2023-05-07T05:01:02;12.50;99.90
4647;DHT22;2336;47.822;7.564;2023-05-07T05:03:29;12.60;99.90
4647;DHT22;2336;47.822;7.564;2023-05-07T05:05:57;12.70;99.90
4647;DHT22;2336;47.822;7.564;2023-05-07T05:08:24;12.80;99.90
4647;DHT22;2336;47.822;7.564;2023-05-07T05:10:51;12.80;99.90
4647;DHT22;2336;47.822;7.564;2023-05-07T05:13:18;12.90;99.90
4647;DHT22;2336;47.822;7.564;2023-05-07T05:15:45;13.00;99.90
4647;DHT22;2336;47.822;7.564;2023-05-07T05:18:12;13.10;99.90
4647;DHT22;2336;47.822;7.564;2023-05-07T05:20:39;13.10;99.90
4647;DHT22;2336;47.822;7.564;2023-05-07T05:23:07;13.20;99.90
4647;DHT22;2336;47.822;7.564;2023-05-07T05:25:34;13.30;99.90
4647;DHT22;2336;47.822;7.564;2023-05-07T05:28:00;13.30;99.90
4647;DHT22;2336;47.822;7.564;2023-05-07T05:30:28;13.30;99.90
4647;DHT22;2336;47.822;7.564;2023-05-07T05:32:54;13.40;99.90
4647;DHT22;2336;47.822;7.564;2023-05-07T05:35:21;13.40;99.90
4647;DHT22;2336;47.822;7.564;2023-05-07T05:37:48;13.40;99.90
4647;DHT22;2336;47.822;7.564;2023-05-07T05:40:16;13.50;99.90
4647;DHT22;2336;47.822;7.564;2023-05-07T05:42:42;13.50;99.90
4647;DHT22;2336;47.822;7.564;2023-05-07T05:45:09;13.60;99.90
4647;DHT22;2336;47.822;7.564;2023-05-07T05:47:37;13.70;99.90
4647;DHT22;2336;47.822;7.564;2023-05-07T05:50:05;13.80;99.90
4647;DHT22;2336;47.822;7.564;2023-05-07T05:52:32;13.90;99.90
4647;DHT22;2336;47.822;7.564;2023-05-07T05:54:59;14.00;99.90
4647;DHT22;2336;47.822;7.564;2023-05-07T05:57:27;14.10;99.90
4647;DHT22;2336;47.822;7.564;2023-05-07T05:59:54;14.10;99.90
4647;DHT22;2336;47.822;7.564;2023-05-07T06:02:20;14.20;99.90
4647;DHT22;2336;47.822;7.564;2023-05-07T06:04:47;14.30;99.90
4647;DHT22;2336;47.822;7.564;2023-05-07T06:07:14;14.30;99.90
4647;DHT22;2336;47.822;7.564;2023-05-07T06:09:41;14.40;99.90
4647;DHT22;2336;47.822;7.564;2023-05-07T06:12:07;14.50;99.90
4647;DHT22;2336;47.822;7.564;2023-05-07T06:14:35;14.50;99.90
4647;DHT22;2336;47.822;7.564;2023-05-07T06:17:02;14.60;99.90
4647;DHT22;2336;47.822;7.564;2023-05-07T06:19:29;14.60;99.90
4647;DHT22;2336;47.822;7.564;2023-05-07T06:21:56;14.60;99.90
4647;DHT22;2336;47.822;7.564;2023-05-07T06:24:23;14.60;99.90
4647;DHT22;2336;47.822;7.564;2023-05-07T06:26:50;14.70;99.90
4647;DHT22;2336;47.822;7.564;2023-05-07T06:29:17;14.60;99.90
4647;DHT22;2336;47.822;7.564;2023-05-07T06:31:45;14.70;99.90
4647;DHT22;2336;47.822;7.564;2023-05-07T06:34:11;14.60;99.90
4647;DHT22;2336;47.822;7.564;2023-05-07T06:36:39;14.60;99.90
4647;DHT22;2336;47.822;7.564;2023-05-07T06:39:06;14.60;99.90
4647;DHT22;2336;47.822;7.564;2023-05-07T06:41:33;14.70;99.90
4647;DHT22;2336;47.822;7.564;2023-05-07T06:44:00;14.70;99.90
4647;DHT22;2336;47.822;7.564;2023-05-07T06:46:27;14.80;99.90
4647;DHT22;2336;47.822;7.564;2023-05-07T06:48:56;14.90;99.90
4647;DHT22;2336;47.822;7.564;2023-05-07T06:51:23;14.90;99.90
4647;DHT22;2336;47.822;7.564;2023-05-07T06:53:50;15.00;99.90
4647;DHT22;2336;47.822;7.564;2023-05-07T06:56:16;15.10;99.90
4647;DHT22;2336;47.822;7.564;2023-05-07T06:58:43;15.20;99.90
4647;DHT22;2336;47.822;7.564;2023-05-07T07:01:10;15.30;99.90
4647;DHT22;2336;47.822;7.564;2023-05-07T07:03:36;15.50;99.90
4647;DHT22;2336;47.822;7.564;2023-05-07T07:06:05;15.80;99.90
4647;DHT22;2336;47.822;7.564;2023-05-07T07:08:31;16.00;99.90
4647;DHT22;2336;47.822;7.564;2023-05-07T07:10:58;16.10;99.90
4647;DHT22;2336;47.822;7.564;2023-05-07T07:13:25;16.10;99.90
4647;DHT22;2336;47.822;7.564;2023-05-07T07:15:52;16.10;99.90
4647;DHT22;2336;47.822;7.564;2023-05-07T07:18:19;16.20;99.90
4647;DHT22;2336;47.822;7.564;2023-05-07T07:20:46;16.20;99.90
4647;DHT22;2336;47.822;7.564;2023-05-07T07:23:14;16.20;99.90
4647;DHT22;2336;47.822;7.564;2023-05-07T07:25:40;16.30;99.90
4647;DHT22;2336;47.822;7.564;2023-05-07T07:28:07;16.30;99.90
4647;DHT22;2336;47.822;7.564;2023-05-07T07:30:34;16.40;99.90
4647;DHT22;2336;47.822;7.564;2023-05-07T07:33:00;16.40;99.90
4647;DHT22;2336;47.822;7.564;2023-05-07T07:35:28;16.50;99.90
4647;DHT22;2336;47.822;7.564;2023-05-07T07:37:55;16.60;99.90
4647;DHT22;2336;47.822;7.564;2023-05-07T07:40:23;16.70;99.90
4647;DHT22;2336;47.822;7.564;2023-05-07T07:42:50;16.80;99.90
4647;DHT22;2336;47.822;7.564;2023-05-07T07:45:17;16.90;99.90
4647;DHT22;2336;47.822;7.564;2023-05-07T07:47:44;17.00;99.90
4647;DHT22;2336;47.822;7.564;2023-05-07T07:50:11;17.00;99.90
4647;DHT22;2336;47.822;7.564;2023-05-07T07:52:38;17.00;99.90
4647;DHT22;2336;47.822;7.564;2023-05-07T07:55:05;17.10;99.90
4647;DHT22;2336;47.822;7.564;2023-05-07T07:57:34;17.10;99.90
4647;DHT22;2336;47.822;7.564;2023-05-07T08:00:00;17.10;99.90
4647;DHT22;2336;47.822;7.564;2023-05-07T08:02:27;17.20;99.90
4647;DHT22;2336;47.822;7.564;2023-05-07T08:04:54;17.30;99.90
4647;DHT22;2336;47.822;7.564;2023-05-07T08:07:21;17.40;99.90
4647;DHT22;2336;47.822;7.564;2023-05-07T08:09:48;17.50;99.90
4647;DHT22;2336;47.822;7.564;2023-05-07T08:12:14;17.60;99.90
4647;DHT22;2336;47.822;7.564;2023-05-07T08:14:43;17.70;99.90
4647;DHT22;2336;47.822;7.564;2023-05-07T08:17:09;17.70;99.90
4647;DHT22;2336;47.822;7.564;2023-05-07T08:19:36;17.70;99.90
4647;DHT22;2336;47.822;7.564;2023-05-07T08:22:03;17.80;99.90
4647;DHT22;2336;47.822;7.564;2023-05-07T08:24:31;17.90;99.90
4647;DHT22;2336;47.822;7.564;2023-05-07T08:26:57;17.90;99.90
4647;DHT22;2336;47.822;7.564;2023-05-07T08:29:24;18.00;99.90
4647;DHT22;2336;47.822;7.564;2023-05-07T08:31:52;18.10;99.90
4647;DHT22;2336;47.822;7.564;2023-05-07T08:34:19;18.20;99.90
4647;DHT22;2336;47.822;7.564;2023-05-07T08:36:46;18.40;99.90
4647;DHT22;2336;47.822;7.564;2023-05-07T08:39:14;18.60;99.90
4647;DHT22;2336;47.822;7.564;2023-05-07T08:41:43;18.80;99.90
4647;DHT22;2336;47.822;7.564;2023-05-07T08:44:12;18.80;99.90
4647;DHT22;2336;47.822;7.564;2023-05-07T08:46:41;18.80;99.90
4647;DHT22;2336;47.822;7.564;2023-05-07T08:49:10;18.90;99.90
4647;DHT22;2336;47.822;7.564;2023-05-07T08:51:37;19.00;99.90
4647;DHT22;2336;47.822;7.564;2023-05-07T08:54:04;19.10;99.90
4647;DHT22;2336;47.822;7.564;2023-05-07T08:56:32;19.10;99.90
4647;DHT22;2336;47.822;7.564;2023-05-07T08:58:58;19.00;99.90
4647;DHT22;2336;47.822;7.564;2023-05-07T09:01:26;18.90;99.90
4647;DHT22;2336;47.822;7.564;2023-05-07T09:03:53;18.90;99.90
4647;DHT22;2336;47.822;7.564;2023-05-07T09:06:21;18.90;99.90
4647;DHT22;2336;47.822;7.564;2023-05-07T09:08:51;18.80;99.90
4647;DHT22;2336;47.822;7.564;2023-05-07T09:11:22;18.60;99.90
4647;DHT22;2336;47.822;7.564;2023-05-07T09:13:49;18.30;99.90
4647;DHT22;2336;47.822;7.564;2023-05-07T09:16:20;18.00;99.90
4647;DHT22;2336;47.822;7.564;2023-05-07T09:18:48;17.70;99.90
4647;DHT22;2336;47.822;7.564;2023-05-07T09:21:15;17.50;99.90
4647;DHT22;2336;47.822;7.564;2023-05-07T09:23:43;17.30;99.90
4647;DHT22;2336;47.822;7.564;2023-05-07T09:26:10;17.20;99.90
4647;DHT22;2336;47.822;7.564;2023-05-07T09:28:39;17.00;99.90
4647;DHT22;2336;47.822;7.564;2023-05-07T09:31:06;16.70;99.90
4647;DHT22;2336;47.822;7.564;2023-05-07T09:33:33;16.50;99.90
4647;DHT22;2336;47.822;7.564;2023-05-07T09:36:03;16.40;99.90
4647;DHT22;2336;47.822;7.564;2023-05-07T09:38:30;16.20;99.90
4647;DHT22;2336;47.822;7.564;2023-05-07T09:41:04;16.20;99.90
4647;DHT22;2336;47.822;7.564;2023-05-07T09:43:34;16.10;99.90
4647;DHT22;2336;47.822;7.564;2023-05-07T09:46:03;16.10;99.90
4647;DHT22;2336;47.822;7.564;2023-05-07T09:48:34;16.10;99.90
4647;DHT22;2336;47.822;7.564;2023-05-07T09:51:02;16.00;99.90
4647;DHT22;2336;47.822;7.564;2023-05-07T09:53:33;16.00;99.90
4647;DHT22;2336;47.822;7.564;2023-05-07T09:56:02;15.90;99.90
4647;DHT22;2336;47.822;7.564;2023-05-07T09:58:30;15.90;99.90
4647;DHT22;2336;47.822;7.564;2023-05-07T10:00:57;15.70;99.90
4647;DHT22;2336;47.822;7.564;2023-05-07T10:03:27;15.60;99.90
4647;DHT22;2336;47.822;7.564;2023-05-07T10:05:55;15.60;99.90
4647;DHT22;2336;47.822;7.564;2023-05-07T10:08:22;15.50;99.90
4647;DHT22;2336;47.822;7.564;2023-05-07T10:10:49;15.50;99.90
4647;DHT22;2336;47.822;7.564;2023-05-07T10:13:19;15.60;99.90
4647;DHT22;2336;47.822;7.564;2023-05-07T10:15:46;15.60;99.90
4647;DHT22;2336;47.822;7.564;2023-05-07T10:18:14;15.70;99.90
4647;DHT22;2336;47.822;7.564;2023-05-07T10:20:43;15.70;99.90
4647;DHT22;2336;47.822;7.564;2023-05-07T10:23:14;15.70;99.90
4647;DHT22;2336;47.822;7.564;2023-05-07T10:25:44;15.70;99.90
4647;DHT22;2336;47.822;7.564;2023-05-07T10:28:12;15.80;99.90
4647;DHT22;2336;47.822;7.564;2023-05-07T10:30:58;16.00;99.90
4647;DHT22;2336;47.822;7.564;2023-05-07T10:33:28;16.00;99.90
4647;DHT22;2336;47.822;7.564;2023-05-07T10:35:58;16.10;99.90
4647;DHT22;2336;47.822;7.564;2023-05-07T10:38:27;16.20;99.90
4647;DHT22;2336;47.822;7.564;2023-05-07T10:40:56;16.50;99.90
4647;DHT22;2336;47.822;7.564;2023-05-07T10:43:24;16.70;99.90
4647;DHT22;2336;47.822;7.564;2023-05-07T10:46:14;16.90;99.90
4647;DHT22;2336;47.822;7.564;2023-05-07T10:49:08;16.90;99.90
4647;DHT22;2336;47.822;7.564;2023-05-07T10:51:37;16.90;99.90
4647;DHT22;2336;47.822;7.564;2023-05-07T10:54:21;17.00;99.90
4647;DHT22;2336;47.822;7.564;2023-05-07T10:56:51;17.30;99.90
4647;DHT22;2336;47.822;7.564;2023-05-07T10:59:36;17.40;99.90
4647;DHT22;2336;47.822;7.564;2023-05-07T11:02:10;17.60;99.90
4647;DHT22;2336;47.822;7.564;2023-05-07T11:04:39;17.90;99.90
4647;DHT22;2336;47.822;7.564;2023-05-07T11:07:29;18.00;99.90
4647;DHT22;2336;47.822;7.564;2023-05-07T11:10:01;18.30;99.90
4647;DHT22;2336;47.822;7.564;2023-05-07T11:12:53;18.60;99.90
4647;DHT22;2336;47.822;7.564;2023-05-07T11:15:48;18.70;99.90
4647;DHT22;2336;47.822;7.564;2023-05-07T11:18:19;18.90;99.90
4647;DHT22;2336;47.822;7.564;2023-05-07T11:20:51;19.00;99.90
4647;DHT22;2336;47.822;7.564;2023-05-07T11:23:56;19.20;99.90
4647;DHT22;2336;47.822;7.564;2023-05-07T11:26:24;19.30;99.90
4647;DHT22;2336;47.822;7.564;2023-05-07T11:28:52;19.40;99.90
4647;DHT22;2336;47.822;7.564;2023-05-07T11:31:21;19.40;99.90
4647;DHT22;2336;47.822;7.564;2023-05-07T11:33:50;19.40;99.90
4647;DHT22;2336;47.822;7.564;2023-05-07T11:36:18;19.50;99.90
4647;DHT22;2336;47.822;7.564;2023-05-07T11:38:46;19.60;99.90
4647;DHT22;2336;47.822;7.564;2023-05-07T11:41:12;19.60;99.90
4647;DHT22;2336;47.822;7.564;2023-05-07T11:43:54;19.80;99.90
4647;DHT22;2336;47.822;7.564;2023-05-07T11:46:21;19.80;99.90
4647;DHT22;2336;47.822;7.564;2023-05-07T11:48:49;19.60;99.90
4647;DHT22;2336;47.822;7.564;2023-05-07T11:51:19;19.60;99.90
4647;DHT22;2336;47.822;7.564;2023-05-07T11:53:46;19.70;99.90
4647;DHT22;2336;47.822;7.564;2023-05-07T11:56:15;19.60;99.90
4647;DHT22;2336;47.822;7.564;2023-05-07T11:58:43;19.70;99.90
4647;DHT22;2336;47.822;7.564;2023-05-07T12:01:11;19.80;99.90
4647;DHT22;2336;47.822;7.564;2023-05-07T12:03:40;19.60;99.90
4647;DHT22;2336;47.822;7.564;2023-05-07T12:06:10;19.80;99.90
4647;DHT22;2336;47.822;7.564;2023-05-07T12:08:38;19.80;99.90
4647;DHT22;2336;47.822;7.564;2023-05-07T12:11:10;19.80;99.90
4647;DHT22;2336;47.822;7.564;2023-05-07T12:13:39;19.80;99.90
4647;DHT22;2336;47.822;7.564;2023-05-07T12:16:06;19.70;99.90
4647;DHT22;2336;47.822;7.564;2023-05-07T12:18:35;19.60;99.90
4647;DHT22;2336;47.822;7.564;2023-05-07T12:21:03;19.60;99.90
4647;DHT22;2336;47.822;7.564;2023-05-07T12:23:32;19.50;99.90
4647;DHT22;2336;47.822;7.564;2023-05-07T12:26:00;19.30;99.90
4647;DHT22;2336;47.822;7.564;2023-05-07T12:28:26;19.30;99.90
4647;DHT22;2336;47.822;7.564;2023-05-07T12:30:53;19.40;99.90
4647;DHT22;2336;47.822;7.564;2023-05-07T12:33:24;19.40;99.90
4647;DHT22;2336;47.822;7.564;2023-05-07T12:35:53;19.50;99.90
4647;DHT22;2336;47.822;7.564;2023-05-07T12:38:20;19.50;99.90
4647;DHT22;2336;47.822;7.564;2023-05-07T12:40:49;19.40;99.90
4647;DHT22;2336;47.822;7.564;2023-05-07T12:43:17;19.40;99.90
4647;DHT22;2336;47.822;7.564;2023-05-07T12:45:45;19.40;99.90
4647;DHT22;2336;47.822;7.564;2023-05-07T12:48:13;19.60;99.90
4647;DHT22;2336;47.822;7.564;2023-05-07T12:50:40;19.70;99.90
4647;DHT22;2336;47.822;7.564;2023-05-07T12:53:08;20.00;99.90
4647;DHT22;2336;47.822;7.564;2023-05-07T12:55:44;20.30;99.90
4647;DHT22;2336;47.822;7.564;2023-05-07T12:58:20;20.60;99.90
4647;DHT22;2336;47.822;7.564;2023-05-07T13:00:48;20.70;99.90
4647;DHT22;2336;47.822;7.564;2023-05-07T13:03:21;20.90;99.90
4647;DHT22;2336;47.822;7.564;2023-05-07T13:05:48;20.90;99.90
4647;DHT22;2336;47.822;7.564;2023-05-07T13:08:23;20.90;99.90
4647;DHT22;2336;47.822;7.564;2023-05-07T13:10:50;20.80;99.90
4647;DHT22;2336;47.822;7.564;2023-05-07T13:13:18;20.90;99.90
4647;DHT22;2336;47.822;7.564;2023-05-07T13:15:45;21.00;99.90
4647;DHT22;2336;47.822;7.564;2023-05-07T13:18:12;21.10;99.90
4647;DHT22;2336;47.822;7.564;2023-05-07T13:20:39;21.20;99.90
4647;DHT22;2336;47.822;7.564;2023-05-07T13:23:06;21.30;99.90
4647;DHT22;2336;47.822;7.564;2023-05-07T13:25:32;21.20;99.90
4647;DHT22;2336;47.822;7.564;2023-05-07T13:27:59;21.40;99.90
4647;DHT22;2336;47.822;7.564;2023-05-07T13:30:27;21.50;99.90
4647;DHT22;2336;47.822;7.564;2023-05-07T13:32:55;21.70;99.90
4647;DHT22;2336;47.822;7.564;2023-05-07T13:35:22;21.90;99.90
4647;DHT22;2336;47.822;7.564;2023-05-07T13:37:49;21.90;99.90
4647;DHT22;2336;47.822;7.564;2023-05-07T13:40:17;21.80;99.90
4647;DHT22;2336;47.822;7.564;2023-05-07T13:42:45;21.50;99.90
4647;DHT22;2336;47.822;7.564;2023-05-07T13:45:11;21.30;99.90
4647;DHT22;2336;47.822;7.564;2023-05-07T13:47:40;21.40;99.90
4647;DHT22;2336;47.822;7.564;2023-05-07T13:50:08;21.60;99.90
4647;DHT22;2336;47.822;7.564;2023-05-07T13:52:36;21.60;99.90
4647;DHT22;2336;47.822;7.564;2023-05-07T13:55:04;21.60;99.90
4647;DHT22;2336;47.822;7.564;2023-05-07T13:57:31;21.40;99.90
4647;DHT22;2336;47.822;7.564;2023-05-07T13:59:58;21.60;99.90
4647;DHT22;2336;47.822;7.564;2023-05-07T14:02:24;21.80;99.90
4647;DHT22;2336;47.822;7.564;2023-05-07T14:04:52;21.80;99.90
4647;DHT22;2336;47.822;7.564;2023-05-07T14:07:20;21.80;99.90
4647;DHT22;2336;47.822;7.564;2023-05-07T14:09:46;21.80;99.90
4647;DHT22;2336;47.822;7.564;2023-05-07T14:12:13;21.90;99.90
4647;DHT22;2336;47.822;7.564;2023-05-07T14:14:40;21.80;99.90
4647;DHT22;2336;47.822;7.564;2023-05-07T14:17:07;21.90;99.90
4647;DHT22;2336;47.822;7.564;2023-05-07T14:19:34;22.10;99.90
4647;DHT22;2336;47.822;7.564;2023-05-07T14:22:02;22.00;99.90
4647;DHT22;2336;47.822;7.564;2023-05-07T14:24:29;21.90;99.90
4647;DHT22;2336;47.822;7.564;2023-05-07T14:26:56;22.10;99.90
4647;DHT22;2336;47.822;7.564;2023-05-07T14:29:22;22.20;99.90
4647;DHT22;2336;47.822;7.564;2023-05-07T14:31:49;22.40;99.90
4647;DHT22;2336;47.822;7.564;2023-05-07T14:34:16;22.60;99.90
4647;DHT22;2336;47.822;7.564;2023-05-07T14:36:43;22.30;99.90
4647;DHT22;2336;47.822;7.564;2023-05-07T14:39:11;22.40;99.90
4647;DHT22;2336;47.822;7.564;2023-05-07T14:41:38;22.00;99.90
4647;DHT22;2336;47.822;7.564;2023-05-07T14:44:05;21.70;99.90
4647;DHT22;2336;47.822;7.564;2023-05-07T14:46:32;21.40;99.90
4647;DHT22;2336;47.822;7.564;2023-05-07T14:48:59;21.30;99.90
4647;DHT22;2336;47.822;7.564;2023-05-07T14:51:25;21.20;99.90
4647;DHT22;2336;47.822;7.564;2023-05-07T14:53:53;21.20;99.90
4647;DHT22;2336;47.822;7.564;2023-05-07T14:56:21;21.10;99.90
4647;DHT22;2336;47.822;7.564;2023-05-07T14:58:48;21.00;99.90
4647;DHT22;2336;47.822;7.564;2023-05-07T15:01:15;21.10;99.90
4647;DHT22;2336;47.822;7.564;2023-05-07T15:03:42;21.30;99.90
4647;DHT22;2336;47.822;7.564;2023-05-07T15:06:09;21.40;99.90
4647;DHT22;2336;47.822;7.564;2023-05-07T15:08:35;21.30;99.90
4647;DHT22;2336;47.822;7.564;2023-05-07T15:11:02;21.40;99.90
4647;DHT22;2336;47.822;7.564;2023-05-07T15:13:30;21.40;99.90
4647;DHT22;2336;47.822;7.564;2023-05-07T15:15:57;21.20;99.90
4647;DHT22;2336;47.822;7.564;2023-05-07T15:18:24;21.20;99.90
4647;DHT22;2336;47.822;7.564;2023-05-07T15:20:50;21.10;99.90
4647;DHT22;2336;47.822;7.564;2023-05-07T15:23:17;21.10;99.90
4647;DHT22;2336;47.822;7.564;2023-05-07T15:25:44;21.10;99.90
4647;DHT22;2336;47.822;7.564;2023-05-07T15:28:10;21.00;99.90
4647;DHT22;2336;47.822;7.564;2023-05-07T15:30:38;20.90;99.90
4647;DHT22;2336;47.822;7.564;2023-05-07T15:33:05;20.80;99.90
4647;DHT22;2336;47.822;7.564;2023-05-07T15:35:32;20.80;99.90
4647;DHT22;2336;47.822;7.564;2023-05-07T15:37:59;20.80;99.90
4647;DHT22;2336;47.822;7.564;2023-05-07T15:40:28;20.80;99.90
4647;DHT22;2336;47.822;7.564;2023-05-07T15:42:56;20.90;99.90
4647;DHT22;2336;47.822;7.564;2023-05-07T15:45:23;20.90;99.90
4647;DHT22;2336;47.822;7.564;2023-05-07T15:47:51;20.90;99.90
4647;DHT22;2336;47.822;7.564;2023-05-07T15:50:18;20.90;99.90
4647;DHT22;2336;47.822;7.564;2023-05-07T15:52:45;20.90;99.90
4647;DHT22;2336;47.822;7.564;2023-05-07T15:55:12;20.90;99.90
4647;DHT22;2336;47.822;7.564;2023-05-07T15:57:39;20.90;99.90
4647;DHT22;2336;47.822;7.564;2023-05-07T16:00:07;21.00;99.90
4647;DHT22;2336;47.822;7.564;2023-05-07T16:02:37;21.00;99.90
4647;DHT22;2336;47.822;7.564;2023-05-07T16:05:06;21.00;99.90
4647;DHT22;2336;47.822;7.564;2023-05-07T16:07:35;21.00;99.90